Monclova, OH

9:49 PM EDT on September 30, 2014 (GMT -0400)
Toledo Express | Change Station
CLOSE
Current Station
Airport
Location: Toledo,
Elevation: 692 ft
Nearby Weather Stations

Elev 692 ft 41.59 °N, 83.81 °W | Updated 57 minutes ago

Overcast
Overcast
54 °F
Feels Like 54 °F
N
7
Wind Variable Wind from North

Today
High -- | Low -- °F
--% Chance of Precip.
Yesterday
High -- | Low -- °F
Precip. -- in
7:30 AM 7:18 PM
Waxing Crescent, 42% visible
Pressure 30.01 in
Visibility 10.0 miles
Clouds Mostly Cloudy 1500 ft
Overcast 3600 ft
Dew Point 50 °F
Humidity 86%
Rainfall 0.10 in
Snow Depth Not available.
UV 0 out of 12
Pollen 2.10 out of 12
Air Quality Not available.
Flu Activity Not available.
METAR KTOL 010052Z 01006KT 10SM BKN015 OVC036 12/10 A3001 RMK AO2 SLP163 T01220100

More Conditions Fewer Conditions

Pressure 30.01 in
Visibility 10.0 miles
Clouds Mostly Cloudy 1500 ft
Overcast 3600 ft
Dew Point 50 °F
Humidity 86%
Rainfall 0.10 in
Snow Depth Not available.
UV 0 out of 12
Pollen 2.10 out of 12
Air Quality Not available.
Flu Activity Not available.
METAR KTOL 010052Z 01006KT 10SM BKN015 OVC036 12/10 A3001 RMK AO2 SLP163 T01220100

More Conditions Fewer Conditions

10-Day Weather Forecast

Almanac

Astronomy

Sep. 30, 2014 Rise Set
Actual Time 7:30 AM EDT 7:18 PM EDT
Civil Twilight 7:03 AM EDT 7:46 PM EDT
Nautical Twilight 6:31 AM EDT 8:18 PM EDT
Astronomical Twilight 5:58 AM EDT 8:50 PM EDT
Moon 1:41 PM EDT (9/30) 11:44 PM EDT (9/30)
Length of Visible Light 12h 42m
Length of Day
11h 47m
Tomorrow will be 2m 46s shorter.
Waxing Crescent, 42% of the Moon is Illuminated
Today
Waxing Crescent
Oct 1
First Quarter
Oct 8
Full
Oct 15
Last Quarter
Oct 23
New

Today's Extremes

State Highs State Lows

Community

WunderPhotos

Upload Photos

1,757,821 photos uploaded!

Nearby

Snow Depth

Station Depth Elevation
No new snow has been reported.

Earthquake Activity

City Distance Mag. Time & Date
No recent earthquake activity has been reported nearby.
Minimum magnitude displayed is 2.5.

Coastal Water Temperatures

Place Temperature
No Stations Reporting

Nearby Weather Stations